sensor_id;sensor_type;location;lat;lon;timestamp;pressure;altitude;pressure_sealevel;temperature;humidity
34237;BME280;20501;45.956;13.632;2023-04-28T00:01:12;101025.03;;;13.54;57.50
34237;BME280;20501;45.956;13.632;2023-04-28T00:03:38;101022.16;;;13.55;58.56
34237;BME280;20501;45.956;13.632;2023-04-28T00:06:03;101020.84;;;11.83;59.52
34237;BME280;20501;45.956;13.632;2023-04-28T00:08:30;101018.88;;;12.65;59.52
34237;BME280;20501;45.956;13.632;2023-04-28T00:10:55;101016.88;;;12.28;57.64
34237;BME280;20501;45.956;13.632;2023-04-28T00:13:21;101019.81;;;12.05;58.28
34237;BME280;20501;45.956;13.632;2023-04-28T00:15:46;101010.66;;;11.55;62.95
34237;BME280;20501;45.956;13.632;2023-04-28T00:18:13;101008.88;;;11.75;63.04
34237;BME280;20501;45.956;13.632;2023-04-28T00:20:38;101012.44;;;11.45;59.43
34237;BME280;20501;45.956;13.632;2023-04-28T00:23:04;101022.88;;;11.90;58.74
34237;BME280;20501;45.956;13.632;2023-04-28T00:25:29;101017.88;;;12.46;61.42
34237;BME280;20501;45.956;13.632;2023-04-28T00:27:55;101010.13;;;12.12;58.14
34237;BME280;20501;45.956;13.632;2023-04-28T00:30:20;101011.94;;;11.92;59.08
34237;BME280;20501;45.956;13.632;2023-04-28T00:32:46;101014.41;;;12.05;59.70
34237;BME280;20501;45.956;13.632;2023-04-28T00:35:11;101011.84;;;11.32;61.46
34237;BME280;20501;45.956;13.632;2023-04-28T00:37:37;101009.88;;;12.15;60.55
34237;BME280;20501;45.956;13.632;2023-04-28T00:40:03;101000.59;;;12.96;58.82
34237;BME280;20501;45.956;13.632;2023-04-28T00:42:29;100998.53;;;13.28;59.27
34237;BME280;20501;45.956;13.632;2023-04-28T00:44:55;101002.91;;;12.81;60.68
34237;BME280;20501;45.956;13.632;2023-04-28T00:47:21;101008.28;;;13.58;58.38
34237;BME280;20501;45.956;13.632;2023-04-28T00:49:47;100994.72;;;13.01;56.82
34237;BME280;20501;45.956;13.632;2023-04-28T00:52:14;101007.16;;;12.15;61.15
34237;BME280;20501;45.956;13.632;2023-04-28T00:54:40;101014.13;;;11.77;60.59
34237;BME280;20501;45.956;13.632;2023-04-28T00:57:08;101007.84;;;11.67;59.53
34237;BME280;20501;45.956;13.632;2023-04-28T00:59:34;101002.72;;;12.04;63.19
34237;BME280;20501;45.956;13.632;2023-04-28T01:01:59;100997.63;;;12.21;58.91
34237;BME280;20501;45.956;13.632;2023-04-28T01:04:26;100993.91;;;12.91;60.48
34237;BME280;20501;45.956;13.632;2023-04-28T01:06:54;101003.19;;;12.59;57.06
34237;BME280;20501;45.956;13.632;2023-04-28T01:09:20;101005.00;;;11.99;62.54
34237;BME280;20501;45.956;13.632;2023-04-28T01:11:46;100998.59;;;12.00;62.17
34237;BME280;20501;45.956;13.632;2023-04-28T01:14:11;101001.63;;;12.76;59.57
34237;BME280;20501;45.956;13.632;2023-04-28T01:16:37;100997.91;;;12.28;60.03
34237;BME280;20501;45.956;13.632;2023-04-28T01:19:14;101009.19;;;11.82;59.26
34237;BME280;20501;45.956;13.632;2023-04-28T01:21:41;101006.28;;;12.05;59.28
34237;BME280;20501;45.956;13.632;2023-04-28T01:24:06;101010.59;;;11.14;63.01
34237;BME280;20501;45.956;13.632;2023-04-28T01:26:32;101001.63;;;11.14;62.10
34237;BME280;20501;45.956;13.632;2023-04-28T01:28:57;101000.84;;;11.02;62.51
34237;BME280;20501;45.956;13.632;2023-04-28T01:31:23;101000.53;;;11.57;62.55
34237;BME280;20501;45.956;13.632;2023-04-28T01:33:48;101003.22;;;11.17;61.83
34237;BME280;20501;45.956;13.632;2023-04-28T01:36:13;101005.69;;;11.29;63.70
34237;BME280;20501;45.956;13.632;2023-04-28T01:38:39;101003.06;;;10.97;62.20
34237;BME280;20501;45.956;13.632;2023-04-28T01:41:04;101005.31;;;10.49;63.88
34237;BME280;20501;45.956;13.632;2023-04-28T01:43:30;101004.13;;;11.06;62.51
34237;BME280;20501;45.956;13.632;2023-04-28T01:45:55;101001.03;;;10.68;65.09
34237;BME280;20501;45.956;13.632;2023-04-28T01:48:21;100993.41;;;10.94;64.43
34237;BME280;20501;45.956;13.632;2023-04-28T01:50:46;100992.19;;;10.66;64.52
34237;BME280;20501;45.956;13.632;2023-04-28T01:53:12;100990.19;;;10.58;63.94
34237;BME280;20501;45.956;13.632;2023-04-28T01:55:38;101002.75;;;10.69;63.31
34237;BME280;20501;45.956;13.632;2023-04-28T01:58:03;101003.50;;;10.71;65.67
34237;BME280;20501;45.956;13.632;2023-04-28T02:00:29;101004.41;;;10.16;65.09
34237;BME280;20501;45.956;13.632;2023-04-28T02:02:54;101002.19;;;11.18;64.82
34237;BME280;20501;45.956;13.632;2023-04-28T02:05:20;101007.75;;;11.47;60.90
34237;BME280;20501;45.956;13.632;2023-04-28T02:07:45;101002.63;;;10.71;63.36
34237;BME280;20501;45.956;13.632;2023-04-28T02:10:11;100999.50;;;11.18;62.92
34237;BME280;20501;45.956;13.632;2023-04-28T02:12:36;100995.28;;;11.04;63.67
34237;BME280;20501;45.956;13.632;2023-04-28T02:15:02;101001.38;;;10.42;64.43
34237;BME280;20501;45.956;13.632;2023-04-28T02:17:30;100992.09;;;10.89;65.84
34237;BME280;20501;45.956;13.632;2023-04-28T02:19:56;100998.09;;;11.23;62.04
34237;BME280;20501;45.956;13.632;2023-04-28T02:22:22;101004.03;;;10.86;64.17
34237;BME280;20501;45.956;13.632;2023-04-28T02:24:48;101002.91;;;11.41;63.81
34237;BME280;20501;45.956;13.632;2023-04-28T02:27:13;100998.75;;;12.48;60.84
34237;BME280;20501;45.956;13.632;2023-04-28T02:29:39;100992.47;;;12.08;60.24
34237;BME280;20501;45.956;13.632;2023-04-28T02:32:05;100991.03;;;11.63;61.17
34237;BME280;20501;45.956;13.632;2023-04-28T02:34:30;100988.38;;;12.53;61.10
34237;BME280;20501;45.956;13.632;2023-04-28T02:36:56;101000.44;;;13.55;58.64
34237;BME280;20501;45.956;13.632;2023-04-28T02:39:21;100995.25;;;13.62;58.05
34237;BME280;20501;45.956;13.632;2023-04-28T02:41:50;100995.66;;;13.95;57.39
34237;BME280;20501;45.956;13.632;2023-04-28T02:44:16;100989.78;;;13.72;58.08
34237;BME280;20501;45.956;13.632;2023-04-28T02:46:43;100992.69;;;13.23;59.27
34237;BME280;20501;45.956;13.632;2023-04-28T02:49:08;101000.81;;;13.13;59.28
34237;BME280;20501;45.956;13.632;2023-04-28T02:51:34;101002.38;;;13.73;58.18
34237;BME280;20501;45.956;13.632;2023-04-28T02:53:59;101000.94;;;13.31;58.73
34237;BME280;20501;45.956;13.632;2023-04-28T02:56:25;100998.63;;;12.79;56.78
34237;BME280;20501;45.956;13.632;2023-04-28T02:58:50;101003.06;;;12.31;60.73
34237;BME280;20501;45.956;13.632;2023-04-28T03:01:16;100995.03;;;12.10;61.60
34237;BME280;20501;45.956;13.632;2023-04-28T03:03:41;100996.63;;;12.61;61.72
34237;BME280;20501;45.956;13.632;2023-04-28T03:06:06;101004.75;;;12.81;58.56
34237;BME280;20501;45.956;13.632;2023-04-28T03:08:32;100997.88;;;12.87;57.28
34237;BME280;20501;45.956;13.632;2023-04-28T03:10:57;100990.41;;;13.18;58.71
34237;BME280;20501;45.956;13.632;2023-04-28T03:13:23;101000.91;;;12.15;58.48
34237;BME280;20501;45.956;13.632;2023-04-28T03:15:49;100994.13;;;13.07;60.39
34237;BME280;20501;45.956;13.632;2023-04-28T03:18:15;100992.94;;;13.29;58.97
34237;BME280;20501;45.956;13.632;2023-04-28T03:20:40;100986.31;;;13.04;57.54
34237;BME280;20501;45.956;13.632;2023-04-28T03:23:06;100992.69;;;11.95;59.10
34237;BME280;20501;45.956;13.632;2023-04-28T03:25:31;100994.06;;;12.40;62.53
34237;BME280;20501;45.956;13.632;2023-04-28T03:27:57;100987.94;;;12.67;60.06
34237;BME280;20501;45.956;13.632;2023-04-28T03:30:22;100992.81;;;13.69;58.49
34237;BME280;20501;45.956;13.632;2023-04-28T03:32:47;100985.16;;;13.07;57.74
34237;BME280;20501;45.956;13.632;2023-04-28T03:35:13;100982.09;;;12.52;58.08
34237;BME280;20501;45.956;13.632;2023-04-28T03:37:38;100981.38;;;12.60;59.18
34237;BME280;20501;45.956;13.632;2023-04-28T03:40:04;100979.22;;;12.05;60.11
34237;BME280;20501;45.956;13.632;2023-04-28T03:42:30;100980.06;;;13.41;57.40
34237;BME280;20501;45.956;13.632;2023-04-28T03:44:55;100981.06;;;12.83;58.05
34237;BME280;20501;45.956;13.632;2023-04-28T03:47:20;100987.91;;;13.44;56.82
34237;BME280;20501;45.956;13.632;2023-04-28T03:49:46;100975.88;;;13.57;57.85
34237;BME280;20501;45.956;13.632;2023-04-28T03:52:11;100971.66;;;12.58;60.12
34237;BME280;20501;45.956;13.632;2023-04-28T03:54:37;100976.50;;;12.05;60.28
34237;BME280;20501;45.956;13.632;2023-04-28T03:57:02;100975.97;;;11.80;61.37
34237;BME280;20501;45.956;13.632;2023-04-28T03:59:28;100973.75;;;13.03;60.31
34237;BME280;20501;45.956;13.632;2023-04-28T04:01:54;100968.59;;;13.00;58.34
34237;BME280;20501;45.956;13.632;2023-04-28T04:04:19;100972.94;;;13.30;58.26
34237;BME280;20501;45.956;13.632;2023-04-28T04:06:45;100973.94;;;12.13;62.18
34237;BME280;20501;45.956;13.632;2023-04-28T04:09:10;100971.88;;;13.13;58.90
34237;BME280;20501;45.956;13.632;2023-04-28T04:11:36;100968.25;;;12.56;60.71
34237;BME280;20501;45.956;13.632;2023-04-28T04:14:01;100979.09;;;12.46;59.07
34237;BME280;20501;45.956;13.632;2023-04-28T04:16:27;100980.06;;;12.05;61.74
34237;BME280;20501;45.956;13.632;2023-04-28T04:18:53;100984.47;;;11.25;63.91
34237;BME280;20501;45.956;13.632;2023-04-28T04:21:19;100988.81;;;11.16;66.02
34237;BME280;20501;45.956;13.632;2023-04-28T04:23:44;100980.81;;;12.37;62.50
34237;BME280;20501;45.956;13.632;2023-04-28T04:26:09;100986.28;;;11.14;64.66
34237;BME280;20501;45.956;13.632;2023-04-28T04:28:35;100998.88;;;10.62;65.79
34237;BME280;20501;45.956;13.632;2023-04-28T04:31:00;101001.84;;;10.15;67.67
34237;BME280;20501;45.956;13.632;2023-04-28T04:33:27;100991.81;;;9.94;68.38
34237;BME280;20501;45.956;13.632;2023-04-28T04:35:53;101000.53;;;9.98;68.53
34237;BME280;20501;45.956;13.632;2023-04-28T04:38:18;100997.50;;;10.67;68.58
34237;BME280;20501;45.956;13.632;2023-04-28T04:40:44;100996.72;;;10.33;67.23
34237;BME280;20501;45.956;13.632;2023-04-28T04:43:09;100991.50;;;10.85;66.54
34237;BME280;20501;45.956;13.632;2023-04-28T04:45:34;100995.16;;;10.30;67.71
34237;BME280;20501;45.956;13.632;2023-04-28T04:48:01;101001.47;;;10.84;66.47
34237;BME280;20501;45.956;13.632;2023-04-28T04:50:26;101007.50;;;11.50;64.97
34237;BME280;20501;45.956;13.632;2023-04-28T04:52:51;100995.88;;;11.59;63.30
34237;BME280;20501;45.956;13.632;2023-04-28T04:55:18;100989.22;;;11.11;64.14
34237;BME280;20501;45.956;13.632;2023-04-28T04:57:44;100993.47;;;10.83;64.88
34237;BME280;20501;45.956;13.632;2023-04-28T05:00:10;100996.63;;;11.09;64.10
34237;BME280;20501;45.956;13.632;2023-04-28T05:02:36;100996.03;;;10.63;65.20
34237;BME280;20501;45.956;13.632;2023-04-28T05:05:01;100994.00;;;12.01;64.50
34237;BME280;20501;45.956;13.632;2023-04-28T05:07:27;100992.94;;;11.82;63.53
34237;BME280;20501;45.956;13.632;2023-04-28T05:09:52;100986.38;;;12.45;60.37
34237;BME280;20501;45.956;13.632;2023-04-28T05:12:17;100987.13;;;13.14;60.67
34237;BME280;20501;45.956;13.632;2023-04-28T05:14:43;100989.56;;;13.08;60.84
34237;BME280;20501;45.956;13.632;2023-04-28T05:17:08;100984.19;;;12.88;61.37
34237;BME280;20501;45.956;13.632;2023-04-28T05:19:34;100983.88;;;13.01;60.99
34237;BME280;20501;45.956;13.632;2023-04-28T05:21:59;100984.66;;;12.44;61.85
34237;BME280;20501;45.956;13.632;2023-04-28T05:24:26;101000.31;;;12.80;58.76
34237;BME280;20501;45.956;13.632;2023-04-28T05:26:52;100985.22;;;13.72;59.06
34237;BME280;20501;45.956;13.632;2023-04-28T05:29:19;100985.53;;;14.15;57.65
34237;BME280;20501;45.956;13.632;2023-04-28T05:31:44;100985.59;;;14.05;58.06
34237;BME280;20501;45.956;13.632;2023-04-28T05:34:10;100986.53;;;13.68;58.63
34237;BME280;20501;45.956;13.632;2023-04-28T05:36:35;100993.72;;;13.59;58.75
34237;BME280;20501;45.956;13.632;2023-04-28T05:39:01;101006.00;;;12.08;62.13
34237;BME280;20501;45.956;13.632;2023-04-28T05:41:27;101005.19;;;12.37;63.59
34237;BME280;20501;45.956;13.632;2023-04-28T05:43:52;101016.47;;;11.91;62.41
34237;BME280;20501;45.956;13.632;2023-04-28T05:46:17;101011.47;;;12.47;62.86
34237;BME280;20501;45.956;13.632;2023-04-28T05:48:45;101011.44;;;12.37;61.20
34237;BME280;20501;45.956;13.632;2023-04-28T05:51:11;101012.03;;;12.61;61.94
34237;BME280;20501;45.956;13.632;2023-04-28T05:53:36;101013.28;;;12.27;62.65
34237;BME280;20501;45.956;13.632;2023-04-28T05:56:02;101015.75;;;12.79;61.68
34237;BME280;20501;45.956;13.632;2023-04-28T05:58:28;101016.28;;;13.03;60.74
34237;BME280;20501;45.956;13.632;2023-04-28T06:00:53;101023.31;;;11.55;63.35
34237;BME280;20501;45.956;13.632;2023-04-28T06:03:19;101029.09;;;11.40;64.56
34237;BME280;20501;45.956;13.632;2023-04-28T06:05:44;101028.06;;;11.63;64.14
34237;BME280;20501;45.956;13.632;2023-04-28T06:08:10;101033.66;;;11.40;65.47
34237;BME280;20501;45.956;13.632;2023-04-28T06:10:35;101031.00;;;11.81;63.65
34237;BME280;20501;45.956;13.632;2023-04-28T06:13:01;101023.19;;;12.67;61.91
34237;BME280;20501;45.956;13.632;2023-04-28T06:15:29;101019.31;;;12.70;62.35
34237;BME280;20501;45.956;13.632;2023-04-28T06:17:54;101030.59;;;11.95;62.65
34237;BME280;20501;45.956;13.632;2023-04-28T06:20:20;101021.84;;;12.22;62.20
34237;BME280;20501;45.956;13.632;2023-04-28T06:22:45;101021.16;;;12.40;63.12
34237;BME280;20501;45.956;13.632;2023-04-28T06:25:11;101022.56;;;12.15;62.49
34237;BME280;20501;45.956;13.632;2023-04-28T06:27:36;101024.88;;;12.88;62.29
34237;BME280;20501;45.956;13.632;2023-04-28T06:30:02;101018.47;;;13.46;60.60
34237;BME280;20501;45.956;13.632;2023-04-28T06:32:27;101024.13;;;12.17;62.65
34237;BME280;20501;45.956;13.632;2023-04-28T06:34:53;101010.28;;;13.09;61.21
34237;BME280;20501;45.956;13.632;2023-04-28T06:37:18;101023.34;;;13.23;61.07
34237;BME280;20501;45.956;13.632;2023-04-28T06:39:44;101021.81;;;13.96;58.96
34237;BME280;20501;45.956;13.632;2023-04-28T06:42:09;101023.38;;;14.45;57.85
34237;BME280;20501;45.956;13.632;2023-04-28T06:44:34;101031.00;;;14.13;59.10
34237;BME280;20501;45.956;13.632;2023-04-28T06:47:00;101029.38;;;13.27;59.96
34237;BME280;20501;45.956;13.632;2023-04-28T06:49:25;101027.31;;;13.39;60.33
34237;BME280;20501;45.956;13.632;2023-04-28T06:51:51;101019.88;;;13.51;60.87
34237;BME280;20501;45.956;13.632;2023-04-28T06:54:16;101024.63;;;13.76;59.27
34237;BME280;20501;45.956;13.632;2023-04-28T06:56:42;101021.41;;;13.63;60.08
34237;BME280;20501;45.956;13.632;2023-04-28T06:59:08;101025.19;;;14.08;58.55
34237;BME280;20501;45.956;13.632;2023-04-28T07:01:33;101015.38;;;13.97;58.02
34237;BME280;20501;45.956;13.632;2023-04-28T07:03:58;101020.06;;;13.39;60.28
34237;BME280;20501;45.956;13.632;2023-04-28T07:06:24;101017.41;;;13.10;60.91
34237;BME280;20501;45.956;13.632;2023-04-28T07:08:51;101019.81;;;13.13;60.80
34237;BME280;20501;45.956;13.632;2023-04-28T07:11:17;101024.13;;;13.63;60.58
34237;BME280;20501;45.956;13.632;2023-04-28T07:13:42;101026.78;;;13.25;60.54
34237;BME280;20501;45.956;13.632;2023-04-28T07:16:08;101025.28;;;13.60;60.38
34237;BME280;20501;45.956;13.632;2023-04-28T07:18:35;101033.06;;;13.45;61.60
34237;BME280;20501;45.956;13.632;2023-04-28T07:21:00;101024.28;;;13.89;59.13
34237;BME280;20501;45.956;13.632;2023-04-28T07:23:26;101021.06;;;14.04;60.03
34237;BME280;20501;45.956;13.632;2023-04-28T07:25:51;101011.34;;;13.45;60.81
34237;BME280;20501;45.956;13.632;2023-04-28T07:28:16;101008.50;;;13.75;60.56
34237;BME280;20501;45.956;13.632;2023-04-28T07:30:42;101003.97;;;13.66;60.62
34237;BME280;20501;45.956;13.632;2023-04-28T07:33:07;101000.53;;;14.37;59.06
34237;BME280;20501;45.956;13.632;2023-04-28T07:35:33;101008.97;;;13.70;58.91
34237;BME280;20501;45.956;13.632;2023-04-28T07:37:58;101013.50;;;13.42;60.85
34237;BME280;20501;45.956;13.632;2023-04-28T07:40:23;101013.34;;;13.34;60.64
34237;BME280;20501;45.956;13.632;2023-04-28T07:42:49;101017.25;;;13.11;61.10
34237;BME280;20501;45.956;13.632;2023-04-28T07:45:15;101017.06;;;13.32;61.45
34237;BME280;20501;45.956;13.632;2023-04-28T07:47:41;101023.97;;;13.17;61.55
34237;BME280;20501;45.956;13.632;2023-04-28T07:50:07;101034.34;;;13.41;61.21
34237;BME280;20501;45.956;13.632;2023-04-28T07:52:33;101038.38;;;13.18;61.58
34237;BME280;20501;45.956;13.632;2023-04-28T07:54:59;101040.22;;;13.17;61.80
34237;BME280;20501;45.956;13.632;2023-04-28T07:57:25;101049.22;;;13.18;63.01
34237;BME280;20501;45.956;13.632;2023-04-28T07:59:51;101061.50;;;13.31;61.71
34237;BME280;20501;45.956;13.632;2023-04-28T08:02:16;101061.38;;;13.71;61.77
34237;BME280;20501;45.956;13.632;2023-04-28T08:04:43;101059.28;;;13.92;60.57
34237;BME280;20501;45.956;13.632;2023-04-28T08:07:09;101058.97;;;13.68;61.31
34237;BME280;20501;45.956;13.632;2023-04-28T08:09:34;101053.22;;;14.08;60.46
34237;BME280;20501;45.956;13.632;2023-04-28T08:12:00;101060.47;;;13.90;61.01
34237;BME280;20501;45.956;13.632;2023-04-28T08:14:26;101057.97;;;13.69;61.64
34237;BME280;20501;45.956;13.632;2023-04-28T08:16:52;101071.50;;;13.78;61.41
34237;BME280;20501;45.956;13.632;2023-04-28T08:19:18;101062.03;;;13.83;60.08
34237;BME280;20501;45.956;13.632;2023-04-28T08:21:43;101063.91;;;14.10;59.61
34237;BME280;20501;45.956;13.632;2023-04-28T08:24:09;101052.25;;;13.62;60.51
34237;BME280;20501;45.956;13.632;2023-04-28T08:26:38;101057.22;;;13.76;60.92
34237;BME280;20501;45.956;13.632;2023-04-28T08:29:04;101063.75;;;13.84;60.19
34237;BME280;20501;45.956;13.632;2023-04-28T08:31:29;101061.16;;;13.92;59.78
34237;BME280;20501;45.956;13.632;2023-04-28T08:33:55;101072.84;;;14.20;60.33
34237;BME280;20501;45.956;13.632;2023-04-28T08:36:20;101068.09;;;14.32;59.94
34237;BME280;20501;45.956;13.632;2023-04-28T08:38:46;101064.69;;;14.66;59.04
34237;BME280;20501;45.956;13.632;2023-04-28T08:41:13;101062.75;;;14.59;58.99
34237;BME280;20501;45.956;13.632;2023-04-28T08:43:39;101062.44;;;14.44;59.32
34237;BME280;20501;45.956;13.632;2023-04-28T08:46:07;101058.34;;;14.76;58.34
34237;BME280;20501;45.956;13.632;2023-04-28T08:48:41;101069.72;;;14.43;59.54
34237;BME280;20501;45.956;13.632;2023-04-28T08:51:14;101071.09;;;14.29;60.12
34237;BME280;20501;45.956;13.632;2023-04-28T08:53:43;101064.69;;;14.48;59.46
34237;BME280;20501;45.956;13.632;2023-04-28T08:56:09;101058.38;;;14.30;59.34
34237;BME280;20501;45.956;13.632;2023-04-28T08:58:38;101065.31;;;14.14;59.66
34237;BME280;20501;45.956;13.632;2023-04-28T09:01:03;101062.91;;;14.39;58.72
34237;BME280;20501;45.956;13.632;2023-04-28T09:03:30;101065.50;;;14.31;59.62
34237;BME280;20501;45.956;13.632;2023-04-28T09:05:56;101067.16;;;13.96;60.06
34237;BME280;20501;45.956;13.632;2023-04-28T09:08:22;101067.19;;;14.14;60.31
34237;BME280;20501;45.956;13.632;2023-04-28T09:11:07;101061.53;;;14.07;59.87
34237;BME280;20501;45.956;13.632;2023-04-28T09:13:34;101062.00;;;14.20;60.75
34237;BME280;20501;45.956;13.632;2023-04-28T09:16:00;101059.00;;;13.96;60.52
34237;BME280;20501;45.956;13.632;2023-04-28T09:18:27;101057.09;;;14.06;59.98
34237;BME280;20501;45.956;13.632;2023-04-28T09:21:08;101060.31;;;14.19;60.80
34237;BME280;20501;45.956;13.632;2023-04-28T09:23:45;101054.34;;;14.34;60.78
34237;BME280;20501;45.956;13.632;2023-04-28T09:26:12;101055.78;;;14.28;61.11
34237;BME280;20501;45.956;13.632;2023-04-28T09:28:38;101060.66;;;14.06;62.72
34237;BME280;20501;45.956;13.632;2023-04-28T09:31:03;101059.91;;;14.14;61.60
34237;BME280;20501;45.956;13.632;2023-04-28T09:33:29;101066.16;;;14.15;61.53
34237;BME280;20501;45.956;13.632;2023-04-28T09:35:54;101070.88;;;13.95;64.66
34237;BME280;20501;45.956;13.632;2023-04-28T09:38:21;101071.78;;;13.85;66.33
34237;BME280;20501;45.956;13.632;2023-04-28T09:43:35;101063.88;;;13.92;65.47
34237;BME280;20501;45.956;13.632;2023-04-28T09:46:03;101065.19;;;14.34;62.31
34237;BME280;20501;45.956;13.632;2023-04-28T09:48:32;101069.94;;;14.32;62.71
34237;BME280;20501;45.956;13.632;2023-04-28T09:51:03;101068.69;;;14.26;63.96
34237;BME280;20501;45.956;13.632;2023-04-28T09:53:30;101077.84;;;13.97;67.39
34237;BME280;20501;45.956;13.632;2023-04-28T09:55:57;101066.16;;;14.15;63.71
34237;BME280;20501;45.956;13.632;2023-04-28T09:58:24;101063.19;;;14.36;62.36
34237;BME280;20501;45.956;13.632;2023-04-28T10:00:53;101063.97;;;14.46;62.35
34237;BME280;20501;45.956;13.632;2023-04-28T10:03:29;101060.44;;;14.82;62.27
34237;BME280;20501;45.956;13.632;2023-04-28T10:05:56;101051.66;;;15.06;59.62
34237;BME280;20501;45.956;13.632;2023-04-28T10:08:23;101050.56;;;14.99;61.04
34237;BME280;20501;45.956;13.632;2023-04-28T10:10:49;101047.31;;;14.77;67.16
34237;BME280;20501;45.956;13.632;2023-04-28T10:13:18;101042.41;;;14.99;62.81
34237;BME280;20501;45.956;13.632;2023-04-28T10:15:44;101035.53;;;15.13;59.45
34237;BME280;20501;45.956;13.632;2023-04-28T10:18:14;101035.75;;;15.20;59.40
34237;BME280;20501;45.956;13.632;2023-04-28T10:20:45;101033.00;;;14.57;63.33
34237;BME280;20501;45.956;13.632;2023-04-28T10:25:51;101030.09;;;13.67;76.32
34237;BME280;20501;45.956;13.632;2023-04-28T10:28:19;101032.88;;;13.57;76.52
34237;BME280;20501;45.956;13.632;2023-04-28T10:31:11;101021.19;;;13.84;74.39
34237;BME280;20501;45.956;13.632;2023-04-28T10:33:37;101014.97;;;14.20;67.09
34237;BME280;20501;45.956;13.632;2023-04-28T10:36:03;101008.22;;;14.42;65.21
34237;BME280;20501;45.956;13.632;2023-04-28T10:38:30;100999.13;;;14.88;63.14
34237;BME280;20501;45.956;13.632;2023-04-28T10:40:55;101017.13;;;15.07;62.37
34237;BME280;20501;45.956;13.632;2023-04-28T10:43:37;101021.19;;;14.66;63.91
34237;BME280;20501;45.956;13.632;2023-04-28T10:46:08;101021.03;;;15.04;61.76
34237;BME280;20501;45.956;13.632;2023-04-28T10:56:24;101009.78;;;14.81;64.92
34237;BME280;20501;45.956;13.632;2023-04-28T10:58:54;101010.28;;;15.02;63.92
34237;BME280;20501;45.956;13.632;2023-04-28T11:16:59;101017.06;;;14.62;70.42
34237;BME280;20501;45.956;13.632;2023-04-28T11:19:30;101017.25;;;14.79;69.81
34237;BME280;20501;45.956;13.632;2023-04-28T11:21:58;101010.56;;;14.55;71.77
34237;BME280;20501;45.956;13.632;2023-04-28T11:24:24;101006.56;;;14.85;65.91
34237;BME280;20501;45.956;13.632;2023-04-28T11:26:50;101002.31;;;14.83;72.05
34237;BME280;20501;45.956;13.632;2023-04-28T11:29:17;101001.22;;;14.94;71.35
34237;BME280;20501;45.956;13.632;2023-04-28T11:31:50;100994.28;;;14.99;70.02
34237;BME280;20501;45.956;13.632;2023-04-28T11:34:19;100994.78;;;14.95;67.19
34237;BME280;20501;45.956;13.632;2023-04-28T11:36:46;100987.41;;;15.13;66.16
34237;BME280;20501;45.956;13.632;2023-04-28T11:39:12;100981.09;;;15.13;67.17
34237;BME280;20501;45.956;13.632;2023-04-28T11:41:42;100972.63;;;15.16;63.19
34237;BME280;20501;45.956;13.632;2023-04-28T11:44:22;100970.31;;;15.29;62.93
34237;BME280;20501;45.956;13.632;2023-04-28T11:46:53;100966.88;;;15.19;64.18
34237;BME280;20501;45.956;13.632;2023-04-28T11:49:25;100956.69;;;14.95;62.07
34237;BME280;20501;45.956;13.632;2023-04-28T11:51:55;100954.97;;;14.94;61.97
34237;BME280;20501;45.956;13.632;2023-04-28T11:54:23;100959.94;;;14.98;61.37
34237;BME280;20501;45.956;13.632;2023-04-28T11:56:50;100958.38;;;15.22;60.81
34237;BME280;20501;45.956;13.632;2023-04-28T11:59:16;100951.56;;;15.18;58.04
34237;BME280;20501;45.956;13.632;2023-04-28T12:01:51;100951.81;;;15.41;59.37
34237;BME280;20501;45.956;13.632;2023-04-28T12:04:37;100938.00;;;15.35;57.15
34237;BME280;20501;45.956;13.632;2023-04-28T12:07:13;100929.03;;;15.08;57.12
34237;BME280;20501;45.956;13.632;2023-04-28T12:09:42;100936.66;;;15.30;60.18
34237;BME280;20501;45.956;13.632;2023-04-28T12:12:14;100919.81;;;15.35;60.31
34237;BME280;20501;45.956;13.632;2023-04-28T12:15:00;100924.13;;;15.11;55.13
34237;BME280;20501;45.956;13.632;2023-04-28T12:17:28;100926.38;;;15.16;55.22
34237;BME280;20501;45.956;13.632;2023-04-28T12:19:54;100928.31;;;15.32;58.41
34237;BME280;20501;45.956;13.632;2023-04-28T12:22:21;100932.00;;;15.23;54.87
34237;BME280;20501;45.956;13.632;2023-04-28T12:25:05;100925.72;;;15.22;53.94
34237;BME280;20501;45.956;13.632;2023-04-28T12:27:32;100927.81;;;15.37;53.68
34237;BME280;20501;45.956;13.632;2023-04-28T12:29:57;100923.78;;;15.49;59.90
34237;BME280;20501;45.956;13.632;2023-04-28T12:32:39;100923.78;;;15.49;59.04
34237;BME280;20501;45.956;13.632;2023-04-28T12:35:06;100931.06;;;15.40;54.37
34237;BME280;20501;45.956;13.632;2023-04-28T12:37:32;100929.72;;;15.44;55.63
34237;BME280;20501;45.956;13.632;2023-04-28T12:39:57;100933.66;;;15.42;54.62
34237;BME280;20501;45.956;13.632;2023-04-28T12:42:23;100939.72;;;15.36;53.98
34237;BME280;20501;45.956;13.632;2023-04-28T12:44:49;100940.78;;;15.43;57.63
34237;BME280;20501;45.956;13.632;2023-04-28T12:47:15;100935.00;;;15.46;56.95
34237;BME280;20501;45.956;13.632;2023-04-28T12:49:42;100921.91;;;15.50;57.37
34237;BME280;20501;45.956;13.632;2023-04-28T12:52:08;100923.66;;;15.59;56.30
34237;BME280;20501;45.956;13.632;2023-04-28T12:54:34;100917.03;;;15.61;58.00
34237;BME280;20501;45.956;13.632;2023-04-28T12:56:59;100918.72;;;15.54;55.49
34237;BME280;20501;45.956;13.632;2023-04-28T12:59:26;100893.72;;;15.67;57.64
34237;BME280;20501;45.956;13.632;2023-04-28T13:01:51;100885.56;;;15.59;55.31
34237;BME280;20501;45.956;13.632;2023-04-28T13:04:17;100884.97;;;15.47;52.49
34237;BME280;20501;45.956;13.632;2023-04-28T13:06:43;100883.50;;;15.61;56.46